createdAt,value
2018-12-12T00:00:05.767Z,17.70
2018-12-12T00:02:36.485Z,14.70
2018-12-12T00:05:07.287Z,10.03
2018-12-12T00:07:36.047Z,17.80
2018-12-12T00:10:10.158Z,13.30
2018-12-12T00:12:39.079Z,15.23
2018-12-12T00:15:08.128Z,14.10
2018-12-12T00:17:37.350Z,14.33
2018-12-12T00:20:06.253Z,19.93
2018-12-12T00:22:35.042Z,13.80
2018-12-12T00:25:04.081Z,10.72
2018-12-12T00:27:32.796Z,13.97
2018-12-12T00:30:01.644Z,14.77
2018-12-12T00:32:30.831Z,14.10
2018-12-12T00:34:59.818Z,20.77
2018-12-12T00:37:29.670Z,21.53
2018-12-12T00:39:58.398Z,25.87
2018-12-12T00:42:27.491Z,21.87
2018-12-12T00:44:56.292Z,18.53
2018-12-12T00:47:25.165Z,24.53
2018-12-12T00:49:54.082Z,18.57
2018-12-12T00:52:23.143Z,17.80
2018-12-12T00:54:52.303Z,15.43
2018-12-12T00:57:22.203Z,15.43
2018-12-12T00:59:50.960Z,12.37
2018-12-12T01:02:21.880Z,13.57
2018-12-12T01:04:50.611Z,14.10
2018-12-12T01:07:19.438Z,12.87
2018-12-12T01:09:48.577Z,11.77
2018-12-12T01:12:17.694Z,12.00
2018-12-12T01:14:46.472Z,14.53
2018-12-12T01:17:15.200Z,12.53
2018-12-12T01:19:44.201Z,13.10
2018-12-12T01:22:12.929Z,11.17
2018-12-12T01:24:41.646Z,13.28
2018-12-12T01:27:10.486Z,13.10
2018-12-12T01:29:39.282Z,11.83
2018-12-12T01:32:08.111Z,9.37
2018-12-12T01:34:37.152Z,12.77
2018-12-12T01:37:06.340Z,10.63
2018-12-12T01:39:35.092Z,13.77
2018-12-12T01:42:04.059Z,14.17
2018-12-12T01:44:33.204Z,13.83
2018-12-12T01:47:02.358Z,9.17
2018-12-12T01:49:31.347Z,14.63
2018-12-12T01:52:00.063Z,13.47
2018-12-12T01:54:28.800Z,11.20
2018-12-12T01:56:57.525Z,10.07
2018-12-12T01:59:26.231Z,9.73
2018-12-12T02:01:55.279Z,9.43
2018-12-12T02:04:24.526Z,8.53
2018-12-12T02:06:53.464Z,13.40
2018-12-12T02:09:22.684Z,11.48
2018-12-12T02:11:51.747Z,9.57
2018-12-12T02:14:20.478Z,13.13
2018-12-12T02:16:49.203Z,13.97
2018-12-12T02:19:18.196Z,14.67
2018-12-12T02:21:47.043Z,11.17
2018-12-12T02:24:16.895Z,12.73
2018-12-12T02:26:45.624Z,9.10
2018-12-12T02:29:14.325Z,8.40
2018-12-12T02:31:43.198Z,8.73
2018-12-12T02:34:11.919Z,9.77
2018-12-12T02:36:40.978Z,12.43
2018-12-12T02:39:09.707Z,10.67
2018-12-12T02:41:39.575Z,14.50
2018-12-12T02:44:08.329Z,10.60
2018-12-12T02:46:38.100Z,10.57
2018-12-12T02:49:07.047Z,10.60
2018-12-12T02:51:35.869Z,12.03
2018-12-12T02:54:05.525Z,12.07
2018-12-12T02:56:35.443Z,11.23
2018-12-12T02:59:04.315Z,14.20
2018-12-12T03:01:33.506Z,11.10
2018-12-12T03:04:02.288Z,9.17
2018-12-12T03:06:31.099Z,11.63
2018-12-12T03:08:59.823Z,12.43
2018-12-12T03:11:28.795Z,16.75
2018-12-12T03:13:57.523Z,10.97
2018-12-12T03:16:26.328Z,13.13
2018-12-12T03:18:55.265Z,9.90
2018-12-12T03:21:24.019Z,14.33
2018-12-12T03:23:52.913Z,10.43
2018-12-12T03:26:21.712Z,13.47
2018-12-12T03:28:50.511Z,12.53
2018-12-12T03:31:19.248Z,11.33
2018-12-12T03:33:48.055Z,13.07
2018-12-12T03:36:16.881Z,12.13
2018-12-12T03:38:45.595Z,13.47
2018-12-12T03:41:14.767Z,10.45
2018-12-12T03:43:43.515Z,13.33
2018-12-12T03:46:12.270Z,14.17
2018-12-12T03:48:41.316Z,12.90
2018-12-12T03:51:11.131Z,11.83
2018-12-12T03:53:39.917Z,13.83
2018-12-12T03:56:08.878Z,11.43
2018-12-12T03:58:37.615Z,11.13
2018-12-12T04:01:06.555Z,11.53
2018-12-12T04:03:35.276Z,10.37
2018-12-12T04:06:05.054Z,8.68
2018-12-12T04:08:33.900Z,14.37
2018-12-12T04:11:02.783Z,9.13
2018-12-12T04:13:31.743Z,13.50
2018-12-12T04:16:00.543Z,9.97
2018-12-12T04:18:35.739Z,9.20
2018-12-12T04:21:04.708Z,8.00
2018-12-12T04:23:33.585Z,10.17
2018-12-12T04:26:02.389Z,9.10
2018-12-12T04:28:31.096Z,7.93
2018-12-12T04:30:59.994Z,11.47
2018-12-12T04:33:28.831Z,10.90
2018-12-12T04:35:57.583Z,13.83
2018-12-12T04:38:26.388Z,12.50
2018-12-12T04:40:55.394Z,10.60
2018-12-12T04:43:24.170Z,11.20
2018-12-12T04:45:52.891Z,9.93
2018-12-12T04:48:22.010Z,8.78
2018-12-12T04:50:51.164Z,10.83
2018-12-12T04:53:20.033Z,13.57
2018-12-12T04:55:48.825Z,15.23
2018-12-12T04:58:17.726Z,12.88
2018-12-12T05:00:46.547Z,13.53
2018-12-12T05:03:16.234Z,11.78
2018-12-12T05:05:45.074Z,9.43
2018-12-12T05:08:13.801Z,10.45
2018-12-12T05:10:43.103Z,10.23
2018-12-12T05:13:11.828Z,9.98
2018-12-12T05:15:40.626Z,11.97
2018-12-12T05:18:09.447Z,15.17
2018-12-12T05:20:38.334Z,12.57
2018-12-12T05:23:07.235Z,10.17
2018-12-12T05:25:36.041Z,13.17
2018-12-12T05:28:05.055Z,11.07
2018-12-12T05:30:33.791Z,11.63
2018-12-12T05:33:02.554Z,10.13
2018-12-12T05:35:31.474Z,9.13
2018-12-12T05:38:00.347Z,10.57
2018-12-12T05:40:29.405Z,9.03
2018-12-12T05:42:58.345Z,11.83
2018-12-12T05:45:27.450Z,16.55
2018-12-12T05:47:56.276Z,10.30
2018-12-12T05:50:25.082Z,10.80
2018-12-12T05:52:53.802Z,13.13
2018-12-12T05:55:22.798Z,9.77
2018-12-12T05:57:51.523Z,12.50
2018-12-12T06:00:20.486Z,9.83
2018-12-12T06:02:49.243Z,9.27
2018-12-12T06:05:18.042Z,10.67
2018-12-12T06:07:47.063Z,9.07
2018-12-12T06:10:15.974Z,9.33
2018-12-12T06:12:44.699Z,8.30
2018-12-12T06:15:13.419Z,8.87
2018-12-12T06:17:42.871Z,10.57
2018-12-12T06:20:12.048Z,11.73
2018-12-12T06:22:41.339Z,14.70
2018-12-12T06:25:10.254Z,9.33
2018-12-12T06:27:39.100Z,10.47
2018-12-12T06:30:08.974Z,9.53
2018-12-12T06:32:38.770Z,11.07
2018-12-12T06:35:08.138Z,12.33
2018-12-12T06:37:37.291Z,12.60
2018-12-12T06:40:06.432Z,14.87
2018-12-12T06:42:37.139Z,10.83
2018-12-12T06:45:07.202Z,12.70
2018-12-12T06:47:36.461Z,10.50
2018-12-12T06:50:05.618Z,11.70
2018-12-12T06:52:34.926Z,12.23
2018-12-12T06:55:05.023Z,11.87
2018-12-12T06:57:34.010Z,11.80
2018-12-12T07:00:03.547Z,10.17
2018-12-12T07:02:32.714Z,12.20
2018-12-12T07:05:01.506Z,11.63
2018-12-12T07:07:31.257Z,11.57
2018-12-12T07:10:01.638Z,11.40
2018-12-12T07:12:30.608Z,12.53
2018-12-12T07:14:59.335Z,12.10
2018-12-12T07:17:28.064Z,12.20
2018-12-12T07:19:56.922Z,13.90
2018-12-12T07:22:25.708Z,13.43
2018-12-12T07:24:54.508Z,11.07
2018-12-12T07:27:23.225Z,13.30
2018-12-12T07:29:52.267Z,14.50
2018-12-12T07:32:25.962Z,13.20
2018-12-12T07:34:51.771Z,13.17
2018-12-12T07:37:20.494Z,13.53
2018-12-12T07:39:49.323Z,16.07
2018-12-12T07:42:18.260Z,13.17
2018-12-12T07:45:08.782Z,12.70
2018-12-12T07:47:39.447Z,14.60
2018-12-12T07:50:27.850Z,15.93
2018-12-12T07:53:13.458Z,10.43
2018-12-12T07:55:42.204Z,12.57
2018-12-12T07:58:10.979Z,14.00
2018-12-12T08:00:39.779Z,13.57
2018-12-12T08:03:08.842Z,16.60
2018-12-12T08:05:37.822Z,11.27
2018-12-12T08:08:06.542Z,13.67
2018-12-12T08:10:35.566Z,12.83
2018-12-12T08:13:05.343Z,11.18
2018-12-12T08:15:34.730Z,12.73
2018-12-12T08:18:05.025Z,12.53
2018-12-12T08:20:34.792Z,11.13
2018-12-12T08:23:03.998Z,12.50
2018-12-12T08:25:32.882Z,11.73
2018-12-12T08:28:01.671Z,12.60
2018-12-12T08:30:30.449Z,11.73
2018-12-12T08:32:59.199Z,11.63
2018-12-12T08:35:27.929Z,11.10
2018-12-12T08:37:56.786Z,11.40
2018-12-12T08:40:25.579Z,10.37
2018-12-12T08:42:54.351Z,13.27
2018-12-12T08:45:23.082Z,13.48
2018-12-12T08:47:52.215Z,11.63
2018-12-12T08:50:21.148Z,12.93
2018-12-12T08:52:49.923Z,12.57
2018-12-12T08:55:18.662Z,11.40
2018-12-12T08:57:47.507Z,14.87
2018-12-12T09:00:16.300Z,15.25
2018-12-12T09:02:45.219Z,12.77
2018-12-12T09:05:14.000Z,15.50
2018-12-12T09:07:42.991Z,12.00
2018-12-12T09:10:11.980Z,13.53
2018-12-12T09:12:42.665Z,13.00
2018-12-12T09:15:12.370Z,13.18
2018-12-12T09:17:42.790Z,12.10
2018-12-12T09:20:11.749Z,12.70
2018-12-12T09:22:40.929Z,13.63
2018-12-12T09:25:09.655Z,13.60
2018-12-12T09:27:38.494Z,12.80
2018-12-12T09:30:09.474Z,14.20
2018-12-12T09:32:40.217Z,13.63
2018-12-12T09:35:29.700Z,12.30
2018-12-12T09:37:58.579Z,13.37
2018-12-12T09:40:27.331Z,15.47
2018-12-12T09:42:56.837Z,12.03
2018-12-12T09:45:25.942Z,10.80
2018-12-12T09:47:54.834Z,11.93
2018-12-12T09:50:23.939Z,11.60
2018-12-12T09:52:54.846Z,12.33
2018-12-12T09:55:23.627Z,12.10
2018-12-12T09:57:52.550Z,14.53
2018-12-12T10:00:21.393Z,14.73
2018-12-12T10:02:50.241Z,10.97
2018-12-12T10:05:19.087Z,12.58
2018-12-12T10:07:48.247Z,13.83
2018-12-12T10:10:17.120Z,12.47
2018-12-12T10:12:45.869Z,12.83
2018-12-12T10:15:14.730Z,14.93
2018-12-12T10:17:43.607Z,13.90
2018-12-12T10:20:12.406Z,13.53
2018-12-12T10:22:41.131Z,14.03
2018-12-12T10:25:09.926Z,14.58
2018-12-12T10:27:38.838Z,13.87
2018-12-12T10:30:07.768Z,13.97
2018-12-12T10:32:36.527Z,14.33
2018-12-12T10:35:05.563Z,14.67
2018-12-12T10:37:34.319Z,14.23
2018-12-12T10:40:03.330Z,14.37
2018-12-12T10:42:32.097Z,14.30
2018-12-12T10:45:07.628Z,12.60
2018-12-12T10:47:36.800Z,13.80
2018-12-12T10:50:07.612Z,14.23
2018-12-12T10:52:36.557Z,12.27
2018-12-12T10:55:06.026Z,12.53
2018-12-12T10:57:34.881Z,11.40
2018-12-12T11:00:12.590Z,13.60
2018-12-12T11:02:43.884Z,13.60
2018-12-12T11:05:13.024Z,14.57
2018-12-12T11:07:41.801Z,13.90
2018-12-12T11:10:10.799Z,14.70
2018-12-12T11:12:39.702Z,16.50
2018-12-12T11:15:09.535Z,11.93
2018-12-12T11:17:38.453Z,12.33
2018-12-12T11:20:07.527Z,13.30
2018-12-12T11:22:36.287Z,13.73
2018-12-12T11:25:07.042Z,13.60
2018-12-12T11:27:35.886Z,12.43
2018-12-12T11:30:05.782Z,15.00
2018-12-12T11:32:34.615Z,12.00
2018-12-12T11:35:05.172Z,12.27
2018-12-12T11:37:33.944Z,11.03
2018-12-12T11:40:02.730Z,12.57
2018-12-12T11:42:31.460Z,13.77
2018-12-12T11:45:00.261Z,13.00
2018-12-12T11:47:29.041Z,11.77
2018-12-12T11:49:57.827Z,14.10
2018-12-12T11:52:26.555Z,15.00
2018-12-12T11:54:55.297Z,12.63
2018-12-12T11:57:24.664Z,13.57
2018-12-12T11:59:53.418Z,14.43
2018-12-12T12:02:22.163Z,11.33
2018-12-12T12:04:50.964Z,12.50
2018-12-12T12:07:19.727Z,11.43
2018-12-12T12:09:48.511Z,10.20
2018-12-12T12:12:17.296Z,11.87
2018-12-12T12:14:48.192Z,13.63
2018-12-12T12:17:16.911Z,11.23
2018-12-12T12:19:45.624Z,11.13
2018-12-12T12:22:14.399Z,9.45
2018-12-12T12:24:43.155Z,11.03
2018-12-12T12:27:11.903Z,12.33
2018-12-12T12:29:40.731Z,12.73
2018-12-12T12:32:09.459Z,11.50
2018-12-12T12:34:38.186Z,12.23
2018-12-12T12:37:07.054Z,10.50
2018-12-12T12:39:35.839Z,12.80
2018-12-12T12:42:04.967Z,9.95
2018-12-12T12:44:33.767Z,9.87
2018-12-12T12:47:02.844Z,11.50
2018-12-12T12:49:31.655Z,11.18
2018-12-12T12:52:00.699Z,9.60
2018-12-12T12:54:29.524Z,9.10
2018-12-12T12:56:58.371Z,11.07
2018-12-12T12:59:27.173Z,10.03
2018-12-12T13:01:55.919Z,8.70
2018-12-12T13:04:24.799Z,8.70
2018-12-12T13:06:53.751Z,10.73
2018-12-12T13:09:22.830Z,8.55
2018-12-12T13:11:51.606Z,8.30
2018-12-12T13:14:20.402Z,8.47
2018-12-12T13:16:49.175Z,11.10
2018-12-12T13:19:18.069Z,9.80
2018-12-12T13:21:47.058Z,9.87
2018-12-12T13:24:15.809Z,8.97
2018-12-12T13:26:45.618Z,9.27
2018-12-12T13:29:14.544Z,9.30
2018-12-12T13:31:43.384Z,9.33
2018-12-12T13:34:16.282Z,12.50
2018-12-12T13:36:42.947Z,11.07
2018-12-12T13:39:11.743Z,9.73
2018-12-12T13:41:40.534Z,10.93
2018-12-12T13:44:09.252Z,9.33
2018-12-12T13:46:37.975Z,9.63
2018-12-12T13:49:06.897Z,9.10
2018-12-12T13:51:35.750Z,9.93
2018-12-12T13:54:05.099Z,9.17
2018-12-12T13:56:33.818Z,9.70
2018-12-12T13:59:02.622Z,9.67
2018-12-12T14:01:31.412Z,12.50
2018-12-12T14:04:00.244Z,12.07
2018-12-12T14:06:29.224Z,10.77
2018-12-12T14:08:58.224Z,11.73
2018-12-12T14:11:27.214Z,11.47
2018-12-12T14:13:56.279Z,12.23
2018-12-12T14:16:25.195Z,9.60
2018-12-12T14:18:54.112Z,9.43
2018-12-12T14:21:22.886Z,8.33
2018-12-12T14:23:51.890Z,12.43
2018-12-12T14:26:20.935Z,11.23
2018-12-12T14:28:49.924Z,11.90
2018-12-12T14:31:18.641Z,9.68
2018-12-12T14:33:47.551Z,10.30
2018-12-12T14:36:16.543Z,9.87
2018-12-12T14:38:45.331Z,10.03
2018-12-12T14:41:14.184Z,9.73
2018-12-12T14:43:42.978Z,9.57
2018-12-12T14:46:11.948Z,10.77
2018-12-12T14:48:40.752Z,11.23
2018-12-12T14:51:09.480Z,12.58
2018-12-12T14:53:38.320Z,11.00
2018-12-12T14:56:07.110Z,11.57
2018-12-12T14:58:35.935Z,11.83
2018-12-12T15:01:04.727Z,11.27
2018-12-12T15:03:33.439Z,10.87
2018-12-12T15:06:02.239Z,12.13
2018-12-12T15:08:30.994Z,11.87
2018-12-12T15:10:59.740Z,11.95
2018-12-12T15:13:29.563Z,12.53
2018-12-12T15:15:58.277Z,10.67
2018-12-12T15:18:27.245Z,18.50
2018-12-12T15:20:55.972Z,14.37
2018-12-12T15:23:24.698Z,15.60
2018-12-12T15:25:53.491Z,14.50
2018-12-12T15:28:22.217Z,16.37
2018-12-12T15:30:51.101Z,15.57
2018-12-12T15:33:19.985Z,12.83
2018-12-12T15:35:48.737Z,13.33
2018-12-12T15:38:17.525Z,13.03
2018-12-12T15:40:46.399Z,9.57
2018-12-12T15:43:15.122Z,14.13
2018-12-12T15:45:44.126Z,12.10
2018-12-12T15:48:31.277Z,11.28
2018-12-12T15:51:00.022Z,11.17
2018-12-12T15:53:28.951Z,10.77
2018-12-12T15:55:57.705Z,11.43
2018-12-12T15:58:26.607Z,11.70
2018-12-12T16:00:55.431Z,10.33
2018-12-12T16:03:24.596Z,12.87
2018-12-12T16:05:53.427Z,12.33
2018-12-12T16:08:22.275Z,13.18
2018-12-12T16:10:51.022Z,13.33
2018-12-12T16:13:20.051Z,13.13
2018-12-12T16:15:48.890Z,13.33
2018-12-12T16:18:17.810Z,17.02
2018-12-12T16:21:00.722Z,15.37
2018-12-12T16:23:29.487Z,13.57
2018-12-12T16:25:58.290Z,11.30
2018-12-12T16:28:28.074Z,14.67
2018-12-12T16:30:56.846Z,12.37
2018-12-12T16:33:26.714Z,11.87
2018-12-12T16:35:55.451Z,12.27
2018-12-12T16:38:24.547Z,12.70
2018-12-12T16:40:53.399Z,12.90
2018-12-12T16:43:22.121Z,12.30
2018-12-12T16:45:53.063Z,14.17
2018-12-12T16:48:22.004Z,11.90
2018-12-12T16:50:50.983Z,12.13
2018-12-12T16:53:19.799Z,12.60
2018-12-12T16:55:51.891Z,12.03
2018-12-12T16:58:20.851Z,12.43
2018-12-12T17:00:49.728Z,11.70
2018-12-12T17:03:18.783Z,17.60
2018-12-12T17:05:47.786Z,13.67
2018-12-12T17:08:16.961Z,14.53
2018-12-12T17:10:46.029Z,14.03
2018-12-12T17:13:14.986Z,15.00
2018-12-12T17:15:44.115Z,14.00
2018-12-12T17:18:13.030Z,16.97
2018-12-12T17:20:41.959Z,16.27
2018-12-12T17:23:10.943Z,17.27
2018-12-12T17:25:40.247Z,16.97
2018-12-12T17:28:09.387Z,16.20
2018-12-12T17:30:38.703Z,17.17
2018-12-12T17:33:07.695Z,14.00
2018-12-12T17:35:36.695Z,13.97
2018-12-12T17:38:05.749Z,13.17
2018-12-12T17:40:34.826Z,12.17
2018-12-12T17:43:03.899Z,14.80
2018-12-12T17:45:32.887Z,11.43
2018-12-12T17:48:03.186Z,16.00
2018-12-12T17:50:32.518Z,15.60
2018-12-12T17:53:01.316Z,15.20
2018-12-12T17:55:30.639Z,17.80
2018-12-12T17:57:59.794Z,18.07
2018-12-12T18:00:28.825Z,18.27
2018-12-12T18:02:59.856Z,16.40
2018-12-12T18:05:34.386Z,14.93
2018-12-12T18:08:03.196Z,15.20
2018-12-12T18:10:32.329Z,13.17
2018-12-12T18:13:01.247Z,13.73
2018-12-12T18:15:32.176Z,17.23
2018-12-12T18:18:02.834Z,16.77
2018-12-12T18:20:31.912Z,16.00
2018-12-12T18:23:00.996Z,17.67
2018-12-12T18:25:31.819Z,15.33
2018-12-12T18:28:00.787Z,13.93
2018-12-12T18:30:29.560Z,15.33
2018-12-12T18:33:00.564Z,17.37
2018-12-12T18:35:48.054Z,15.27
2018-12-12T18:38:17.679Z,15.70
2018-12-12T18:40:47.575Z,16.40
2018-12-12T18:43:18.350Z,18.87
2018-12-12T18:45:47.486Z,16.37
2018-12-12T18:48:16.450Z,16.40
2018-12-12T18:50:47.488Z,17.33
2018-12-12T18:53:21.463Z,16.57
2018-12-12T18:55:50.363Z,15.97
2018-12-12T18:58:19.565Z,17.93
2018-12-12T19:00:48.359Z,14.87
2018-12-12T19:03:17.349Z,15.50
2018-12-12T19:05:46.343Z,16.80
2018-12-12T19:08:15.357Z,15.72
2018-12-12T19:10:44.349Z,17.43
2018-12-12T19:13:23.556Z,18.03
2018-12-12T19:15:52.574Z,18.70
2018-12-12T19:18:21.393Z,16.50
2018-12-12T19:20:50.514Z,18.23
2018-12-12T19:23:19.616Z,17.13
2018-12-12T19:25:48.646Z,15.37
2018-12-12T19:28:17.411Z,19.33
2018-12-12T19:30:46.328Z,19.20
2018-12-12T19:33:15.055Z,21.43
2018-12-12T19:35:44.126Z,19.50
2018-12-12T19:38:12.935Z,19.67
2018-12-12T19:40:41.826Z,14.63
2018-12-12T19:43:10.970Z,15.73
2018-12-12T19:45:39.843Z,16.73
2018-12-12T19:48:09.641Z,18.07
2018-12-12T19:50:38.599Z,14.87
2018-12-12T19:53:07.343Z,14.20
2018-12-12T19:55:36.167Z,13.00
2018-12-12T19:58:05.072Z,13.80
2018-12-12T20:00:34.082Z,15.10
2018-12-12T20:03:02.995Z,19.53
2018-12-12T20:08:32.130Z,20.07
2018-12-12T20:11:01.075Z,17.35
2018-12-12T20:13:30.360Z,16.77
2018-12-12T20:15:59.367Z,18.03
2018-12-12T20:18:28.599Z,16.00
2018-12-12T20:20:58.877Z,14.77
2018-12-12T20:23:28.090Z,16.13
2018-12-12T20:25:57.083Z,14.70
2018-12-12T20:28:25.926Z,14.57
2018-12-12T20:30:54.723Z,19.23
2018-12-12T20:33:23.752Z,19.37
2018-12-12T20:35:52.897Z,17.63
2018-12-12T20:38:22.044Z,17.67
2018-12-12T20:40:51.107Z,21.40
2018-12-12T20:43:20.027Z,16.07
2018-12-12T20:45:49.018Z,19.10
2018-12-12T20:48:18.003Z,16.17
2018-12-12T20:50:47.027Z,16.23
2018-12-12T20:53:22.431Z,22.40
2018-12-12T20:55:51.553Z,21.23
2018-12-12T20:58:20.362Z,20.50
2018-12-12T21:00:49.430Z,18.33
2018-12-12T21:03:19.665Z,18.93
2018-12-12T21:05:54.308Z,21.43
2018-12-12T21:08:19.479Z,21.80
2018-12-12T21:10:48.320Z,20.70
2018-12-12T21:13:17.165Z,17.90
2018-12-12T21:15:48.569Z,18.20
2018-12-12T21:18:18.496Z,19.77
2018-12-12T21:20:48.435Z,21.00
2018-12-12T21:23:17.447Z,21.93
2018-12-12T21:25:47.278Z,21.47
2018-12-12T21:28:16.405Z,19.35
2018-12-12T21:30:46.156Z,21.90
2018-12-12T21:33:15.002Z,19.27
2018-12-12T21:35:43.933Z,22.83
2018-12-12T21:38:12.682Z,23.40
2018-12-12T21:40:41.979Z,26.40
2018-12-12T21:43:10.715Z,22.77
2018-12-12T21:45:39.596Z,24.47
2018-12-12T21:48:08.337Z,22.93
2018-12-12T21:50:37.562Z,26.20
2018-12-12T21:53:06.655Z,31.13
2018-12-12T21:55:36.554Z,28.63
2018-12-12T21:58:06.089Z,28.80
2018-12-12T22:00:35.208Z,29.83
2018-12-12T22:03:04.469Z,27.70
2018-12-12T22:05:33.440Z,30.30
2018-12-12T22:08:02.446Z,32.87
2018-12-12T22:10:31.423Z,25.53
2018-12-12T22:13:00.225Z,27.93
2018-12-12T22:15:28.946Z,28.00
2018-12-12T22:17:58.747Z,28.20
2018-12-12T22:20:28.538Z,29.37
2018-12-12T22:22:58.071Z,24.77
2018-12-12T22:25:26.987Z,23.67
2018-12-12T22:27:55.850Z,26.30
2018-12-12T22:30:24.889Z,25.47
2018-12-12T22:32:53.851Z,26.67
2018-12-12T22:35:22.873Z,24.80
2018-12-12T22:37:52.226Z,23.30
2018-12-12T22:40:21.251Z,26.90
2018-12-12T22:42:50.092Z,22.87
2018-12-12T22:45:19.004Z,22.73
2018-12-12T22:47:49.152Z,21.73
2018-12-12T22:50:17.955Z,25.63
2018-12-12T22:52:47.162Z,23.30
2018-12-12T22:55:15.949Z,23.73
2018-12-12T22:57:44.889Z,24.03
2018-12-12T23:00:20.182Z,21.70
2018-12-12T23:02:51.075Z,25.20
2018-12-12T23:05:26.906Z,26.42
2018-12-12T23:07:56.115Z,24.37
2018-12-12T23:10:39.835Z,24.30
2018-12-12T23:13:09.339Z,28.90
2018-12-12T23:15:38.399Z,27.67
2018-12-12T23:18:07.279Z,27.90
2018-12-12T23:20:36.291Z,30.30
2018-12-12T23:23:05.231Z,26.73
2018-12-12T23:25:35.328Z,26.60
2018-12-12T23:28:08.522Z,27.90
2018-12-12T23:30:37.335Z,28.10
2018-12-12T23:33:06.255Z,30.33
2018-12-12T23:35:35.184Z,26.60
2018-12-12T23:38:04.313Z,28.80
2018-12-12T23:40:33.106Z,27.27
2018-12-12T23:43:02.242Z,26.47
2018-12-12T23:45:31.211Z,26.03
2018-12-12T23:48:00.198Z,23.47
2018-12-12T23:50:29.007Z,22.33
2018-12-12T23:52:57.776Z,22.32
2018-12-12T23:55:26.512Z,23.23
2018-12-12T23:57:55.271Z,22.40
